Wheeler AAF, Hawaii
Current Conditions -  °F | °C
As of 2:58 AM on Monday 22 Dec 2014 (Local Time) from PHHI Reporting Station
Clear Clear  
Wind Chill: 66°   Ceiling: Unl
Heat Index: 66°   Visibility: 10mi
Dew Point: 64°   Wind: 5mph
Humidity: 93%   Direction: 330°NNW
Pressure: 30"   Gusts: NA
Location:  21.49°N, 158.04°W
Report Text: PHHI 221258Z AUTO 33004KT 10SM CLR 19/18 A3000 RMK AO2 SLP150 T01890177 $
Loading
Personal Weather Stations






























Interactive Weather Map New forecast layout! Learn more

10-Day Weather Forecast

Advertisements
Track Severe Weather on mobile